createdAt,value
2023-03-31T00:00:35.003Z,94512.31
2023-03-31T00:03:03.137Z,94515.91
2023-03-31T00:05:33.358Z,94514.84
2023-03-31T00:08:02.132Z,94512.56
2023-03-31T00:10:30.125Z,94502.66
2023-03-31T00:12:59.544Z,94505.72
2023-03-31T00:15:28.087Z,94469.91
2023-03-31T00:18:00.584Z,94500.53
2023-03-31T00:20:30.030Z,94512.81
2023-03-31T00:22:58.005Z,94512.09
2023-03-31T00:25:26.123Z,94515.69
2023-03-31T00:27:54.425Z,94511.34
2023-03-31T00:30:24.091Z,94502.69
2023-03-31T00:32:52.155Z,94509.03
2023-03-31T00:35:20.404Z,94498.00
2023-03-31T00:37:48.310Z,94496.91
2023-03-31T00:40:16.404Z,94504.16
2023-03-31T00:42:46.480Z,94491.66
2023-03-31T00:45:28.787Z,94491.31
2023-03-31T00:48:04.391Z,94491.47
2023-03-31T00:50:36.340Z,94484.16
2023-03-31T00:53:09.227Z,94482.16
2023-03-31T00:55:41.541Z,94485.03
2023-03-31T00:58:14.668Z,94469.91
2023-03-31T01:00:44.292Z,94487.25
2023-03-31T01:03:12.292Z,94468.69
2023-03-31T01:05:44.024Z,94460.91
2023-03-31T01:08:13.635Z,94475.00
2023-03-31T01:10:44.682Z,94456.84
2023-03-31T01:13:15.389Z,94467.13
2023-03-31T01:15:45.578Z,94462.78
2023-03-31T01:18:16.519Z,94466.91
2023-03-31T01:21:06.589Z,94457.53
2023-03-31T01:24:01.090Z,94464.69
2023-03-31T01:26:44.242Z,94468.94
2023-03-31T01:29:32.292Z,94467.44
2023-03-31T01:32:52.449Z,94473.28
2023-03-31T01:35:50.040Z,94467.78
2023-03-31T01:39:02.768Z,94478.00
2023-03-31T01:41:43.636Z,94477.22
2023-03-31T01:44:23.690Z,94469.94
2023-03-31T01:46:57.269Z,94490.31
2023-03-31T01:49:35.693Z,94468.72
2023-03-31T01:52:10.024Z,94493.66
2023-03-31T01:54:45.718Z,94489.31
2023-03-31T01:57:21.352Z,94504.31
2023-03-31T01:59:58.697Z,94506.75
2023-03-31T02:02:31.597Z,94509.16
2023-03-31T02:05:03.414Z,94495.28
2023-03-31T02:07:38.087Z,94494.13
2023-03-31T02:10:11.967Z,94507.28
2023-03-31T02:12:45.388Z,94510.78
2023-03-31T02:15:19.558Z,94482.00
2023-03-31T02:17:51.683Z,94517.28
2023-03-31T02:20:24.006Z,94519.13
2023-03-31T02:22:55.684Z,94533.06
2023-03-31T02:25:26.497Z,94504.44
2023-03-31T02:28:03.088Z,94527.31
2023-03-31T02:30:37.760Z,94541.25
2023-03-31T02:33:06.074Z,94540.31
2023-03-31T02:35:35.145Z,94534.69
2023-03-31T02:38:06.878Z,94537.44
2023-03-31T02:40:35.271Z,94546.19
2023-03-31T02:43:04.921Z,94550.28
2023-03-31T02:45:42.713Z,94543.47
2023-03-31T02:48:13.077Z,94547.03
2023-03-31T02:51:02.357Z,94549.78
2023-03-31T02:53:44.713Z,94531.78
2023-03-31T02:56:28.447Z,94521.91
2023-03-31T02:59:16.735Z,94513.78
2023-03-31T03:01:59.530Z,94498.56
2023-03-31T03:05:00.326Z,94492.84
2023-03-31T03:07:37.708Z,94497.69
2023-03-31T03:10:11.290Z,94502.03
2023-03-31T03:12:49.856Z,94500.75
2023-03-31T03:15:25.788Z,94457.16
2023-03-31T03:17:55.789Z,94483.34
2023-03-31T03:20:23.879Z,94486.66
2023-03-31T03:22:52.351Z,94454.72
2023-03-31T03:25:20.912Z,94473.59
2023-03-31T03:27:49.072Z,94486.56
2023-03-31T03:30:17.118Z,94477.91
2023-03-31T03:32:46.556Z,94482.78
2023-03-31T03:35:14.803Z,94474.06
2023-03-31T03:37:42.703Z,94474.22
2023-03-31T03:40:11.903Z,94463.72
2023-03-31T03:42:39.786Z,94437.19
2023-03-31T03:45:08.909Z,94457.88
2023-03-31T03:47:37.239Z,94429.78
2023-03-31T03:50:07.758Z,94465.16
2023-03-31T03:52:35.636Z,94458.84
2023-03-31T03:55:03.636Z,94456.88
2023-03-31T03:57:31.645Z,94460.47
2023-03-31T03:59:59.611Z,94458.84
2023-03-31T04:02:28.886Z,94464.50
2023-03-31T04:04:57.128Z,94459.69
2023-03-31T04:07:27.106Z,94473.38
2023-03-31T04:09:56.622Z,94472.28
2023-03-31T04:12:24.497Z,94478.28
2023-03-31T04:14:52.653Z,94465.28
2023-03-31T04:17:32.542Z,94464.31
2023-03-31T04:20:01.961Z,94483.09
2023-03-31T04:22:35.358Z,94484.25
2023-03-31T04:25:04.404Z,94485.50
2023-03-31T04:27:32.941Z,94473.25
2023-03-31T04:30:01.714Z,94468.03
2023-03-31T04:32:33.179Z,94466.06
2023-03-31T04:35:05.087Z,94475.78
2023-03-31T04:37:34.813Z,94473.97
2023-03-31T04:40:09.374Z,94468.63
2023-03-31T04:42:37.308Z,94463.59
2023-03-31T04:45:06.085Z,94465.22
2023-03-31T04:47:34.371Z,94456.84
2023-03-31T04:50:02.372Z,94467.88
2023-03-31T04:52:30.453Z,94472.75
2023-03-31T04:54:59.732Z,94461.09
2023-03-31T04:57:27.957Z,94461.41
2023-03-31T04:59:56.106Z,94420.94
2023-03-31T05:02:25.506Z,94456.81
2023-03-31T05:04:53.973Z,94453.97
2023-03-31T05:07:21.846Z,94439.25
2023-03-31T05:09:49.805Z,94446.06
2023-03-31T05:12:19.126Z,94449.94
2023-03-31T05:14:47.028Z,94450.63
2023-03-31T05:17:14.956Z,94445.59
2023-03-31T05:19:42.916Z,94443.66
2023-03-31T05:22:10.880Z,94432.75
2023-03-31T05:24:38.910Z,94433.22
2023-03-31T05:27:09.204Z,94429.94
2023-03-31T05:29:38.473Z,94415.34
2023-03-31T05:32:06.813Z,94432.50
2023-03-31T05:34:34.741Z,94413.59
2023-03-31T05:37:02.676Z,94413.56
2023-03-31T05:39:33.033Z,94394.81
2023-03-31T05:42:01.375Z,94409.16
2023-03-31T05:44:29.253Z,94427.69
2023-03-31T05:46:58.574Z,94430.69
2023-03-31T05:49:26.496Z,94417.19
2023-03-31T05:51:54.468Z,94418.47
2023-03-31T05:54:22.822Z,94422.31
2023-03-31T05:56:50.850Z,94434.28
2023-03-31T05:59:20.411Z,94428.50
2023-03-31T06:01:48.467Z,94435.53
2023-03-31T06:04:18.348Z,94430.25
2023-03-31T06:06:46.419Z,94435.41
2023-03-31T06:09:14.294Z,94437.84
2023-03-31T06:11:42.219Z,94437.66
2023-03-31T06:14:10.165Z,94437.31
2023-03-31T06:16:38.074Z,94441.69
2023-03-31T06:19:06.072Z,94435.59
2023-03-31T06:21:35.466Z,94405.13
2023-03-31T06:24:03.436Z,94395.72
2023-03-31T06:26:31.636Z,94394.47
2023-03-31T06:28:59.991Z,94431.22
2023-03-31T06:31:28.041Z,94404.22
2023-03-31T06:33:56.080Z,94431.59
2023-03-31T06:36:24.067Z,94423.22
2023-03-31T06:38:53.365Z,94424.84
2023-03-31T06:41:22.571Z,94431.03
2023-03-31T06:43:50.963Z,94424.97
2023-03-31T06:46:19.265Z,94397.53
2023-03-31T06:48:47.241Z,94432.50
2023-03-31T06:51:15.333Z,94432.09
2023-03-31T06:53:43.249Z,94448.16
2023-03-31T06:56:12.580Z,94408.75
2023-03-31T06:58:40.666Z,94422.91
2023-03-31T07:01:09.095Z,94419.19
2023-03-31T07:03:37.370Z,94422.06
2023-03-31T07:06:05.557Z,94420.31
2023-03-31T07:08:33.490Z,94411.94
2023-03-31T07:11:03.134Z,94398.66
2023-03-31T07:13:32.718Z,94382.34
2023-03-31T07:16:00.897Z,94395.31
2023-03-31T07:18:34.300Z,94378.69
2023-03-31T07:21:05.786Z,94339.50
2023-03-31T07:23:36.507Z,94361.75
2023-03-31T07:26:04.665Z,94373.38
2023-03-31T07:28:34.394Z,94375.63
2023-03-31T07:31:02.715Z,94365.19
2023-03-31T07:33:31.185Z,94378.91
2023-03-31T07:36:10.974Z,94355.31
2023-03-31T07:38:41.440Z,94385.81
2023-03-31T07:41:13.301Z,94385.66
2023-03-31T07:43:42.851Z,94373.03
2023-03-31T07:46:16.260Z,94359.41
2023-03-31T07:48:44.281Z,94365.09
2023-03-31T07:51:12.174Z,94362.19
2023-03-31T07:53:40.040Z,94365.81
2023-03-31T07:56:08.257Z,94375.09
2023-03-31T07:58:36.491Z,94380.00
2023-03-31T08:01:06.492Z,94381.66
2023-03-31T08:03:34.706Z,94363.47
2023-03-31T08:06:02.732Z,94341.84
2023-03-31T08:08:30.698Z,94362.00
2023-03-31T08:10:58.742Z,94339.00
2023-03-31T08:13:27.136Z,94348.69
2023-03-31T08:15:55.042Z,94334.88
2023-03-31T08:18:24.400Z,94357.56
2023-03-31T08:20:52.659Z,94360.53
2023-03-31T08:23:20.992Z,94373.13
2023-03-31T08:25:48.945Z,94350.56
2023-03-31T08:28:17.640Z,94334.50
2023-03-31T08:30:46.332Z,94322.03
2023-03-31T08:33:14.314Z,94319.28
2023-03-31T08:35:44.081Z,94318.13
2023-03-31T08:38:12.023Z,94323.97
2023-03-31T08:40:42.438Z,94312.53
2023-03-31T08:43:18.626Z,94327.06
2023-03-31T08:45:48.862Z,94334.09
2023-03-31T08:48:26.020Z,94330.88
2023-03-31T08:51:01.392Z,94339.13
2023-03-31T08:53:33.495Z,94333.06
2023-03-31T08:56:02.079Z,94318.91
2023-03-31T08:58:37.190Z,94312.03
2023-03-31T09:01:14.408Z,94360.22
2023-03-31T09:03:53.709Z,94313.00
2023-03-31T09:06:27.128Z,94285.25
2023-03-31T09:08:59.768Z,94321.09
2023-03-31T09:11:38.912Z,94279.09
2023-03-31T09:14:27.044Z,94299.31
2023-03-31T09:17:08.341Z,94275.00
2023-03-31T09:19:41.593Z,94298.50
2023-03-31T09:22:17.141Z,94271.53
2023-03-31T09:24:53.100Z,94279.97
2023-03-31T09:27:22.329Z,94293.59
2023-03-31T09:29:54.495Z,94285.38
2023-03-31T09:32:24.260Z,94280.84
2023-03-31T09:34:55.093Z,94282.47
2023-03-31T09:37:26.366Z,94258.75
2023-03-31T09:39:54.387Z,94300.53
2023-03-31T09:42:22.415Z,94291.84
2023-03-31T09:44:51.346Z,94324.03
2023-03-31T09:47:27.138Z,94274.16
2023-03-31T09:49:59.086Z,94261.44
2023-03-31T09:52:32.146Z,94272.81
2023-03-31T09:55:02.864Z,94261.44
2023-03-31T09:57:34.033Z,94270.19
2023-03-31T10:00:11.054Z,94283.28
2023-03-31T10:02:41.589Z,94264.00
2023-03-31T10:05:23.702Z,94265.19
2023-03-31T10:07:53.846Z,94244.72
2023-03-31T10:10:30.191Z,94254.22
2023-03-31T10:12:58.250Z,94226.69
2023-03-31T10:15:29.057Z,94238.06
2023-03-31T10:18:00.399Z,94255.16
2023-03-31T10:20:38.707Z,94224.84
2023-03-31T10:23:17.989Z,94230.69
2023-03-31T10:25:47.671Z,94234.44
2023-03-31T10:28:19.480Z,94234.78
2023-03-31T10:30:50.833Z,94230.66
2023-03-31T10:33:23.182Z,94235.72
2023-03-31T10:35:55.681Z,94217.47
2023-03-31T10:38:31.809Z,94226.84
2023-03-31T10:41:01.064Z,94211.50
2023-03-31T10:43:31.600Z,94185.66
2023-03-31T10:46:01.353Z,94200.50
2023-03-31T10:48:31.480Z,94198.59
2023-03-31T10:51:02.147Z,94225.75
2023-03-31T10:53:31.556Z,94193.91
2023-03-31T10:56:31.853Z,94204.84
2023-03-31T10:59:25.223Z,94213.81
2023-03-31T11:02:17.549Z,94207.84
2023-03-31T11:04:57.170Z,94193.34
2023-03-31T11:07:54.346Z,94211.34
2023-03-31T11:11:01.362Z,94204.81
2023-03-31T11:13:36.382Z,94200.53
2023-03-31T11:16:18.916Z,94189.59
2023-03-31T11:19:03.484Z,94169.06
2023-03-31T11:21:41.222Z,94187.47
2023-03-31T11:24:19.170Z,94169.97
2023-03-31T11:26:56.141Z,94173.25
2023-03-31T11:29:34.610Z,94159.34
2023-03-31T11:35:21.416Z,94163.41
2023-03-31T11:38:04.547Z,94156.00
2023-03-31T11:40:51.367Z,94154.53
2023-03-31T11:43:28.885Z,94161.31
2023-03-31T11:46:01.965Z,94154.16
2023-03-31T11:48:37.664Z,94148.78
2023-03-31T11:51:14.657Z,94141.06
2023-03-31T11:53:46.415Z,94140.78
2023-03-31T11:56:16.187Z,94119.34
2023-03-31T11:58:48.518Z,94120.22
2023-03-31T12:01:23.007Z,94143.28
2023-03-31T12:03:58.526Z,94127.81
2023-03-31T12:06:31.837Z,94110.47
2023-03-31T12:09:16.855Z,94126.03
2023-03-31T12:11:51.544Z,94104.81
2023-03-31T12:14:30.932Z,94110.78
2023-03-31T12:17:05.585Z,94124.47
2023-03-31T12:19:41.902Z,94080.94
2023-03-31T12:22:15.529Z,94101.09
2023-03-31T12:24:43.608Z,94093.63
2023-03-31T12:27:17.440Z,94084.38
2023-03-31T12:29:49.437Z,94091.88
2023-03-31T12:32:20.829Z,94084.59
2023-03-31T12:34:56.654Z,94092.75
2023-03-31T12:37:53.340Z,94094.31
2023-03-31T12:40:32.474Z,94084.38
2023-03-31T12:43:19.973Z,94088.25
2023-03-31T12:45:56.420Z,94082.03
2023-03-31T12:49:00.449Z,94073.22
2023-03-31T12:51:45.615Z,94058.84
2023-03-31T12:54:32.597Z,94055.63
2023-03-31T12:57:21.905Z,94051.19
2023-03-31T13:00:20.966Z,94044.00
2023-03-31T13:02:51.371Z,94053.44
2023-03-31T13:05:48.325Z,94041.00
2023-03-31T13:08:55.553Z,94029.47
2023-03-31T13:11:37.037Z,94003.84
2023-03-31T13:14:07.977Z,93990.25
2023-03-31T13:16:37.250Z,93979.84
2023-03-31T13:19:06.969Z,93993.81
2023-03-31T13:21:53.976Z,93977.41
2023-03-31T13:24:24.365Z,93959.88
2023-03-31T13:26:54.117Z,93970.69
2023-03-31T13:29:26.420Z,93957.25
2023-03-31T13:32:21.688Z,93941.34
2023-03-31T13:34:59.773Z,93930.00
2023-03-31T13:37:58.963Z,93944.97
2023-03-31T13:40:47.609Z,93940.25
2023-03-31T13:43:34.132Z,93936.00
2023-03-31T13:46:34.158Z,93927.53
2023-03-31T13:49:16.868Z,93927.50
2023-03-31T13:51:54.836Z,93919.84
2023-03-31T13:54:48.269Z,93924.03
2023-03-31T13:57:54.077Z,93901.09
2023-03-31T14:00:38.856Z,93886.03
2023-03-31T14:03:27.678Z,93905.50
2023-03-31T14:06:00.822Z,93896.13
2023-03-31T14:08:46.135Z,93901.00
2023-03-31T14:11:19.152Z,93898.38
2023-03-31T14:14:00.444Z,93890.69
2023-03-31T14:16:29.199Z,93905.03
2023-03-31T14:19:06.861Z,93894.72
2023-03-31T14:21:40.763Z,93892.00
2023-03-31T14:24:21.392Z,93899.75
2023-03-31T14:26:59.952Z,93888.59
2023-03-31T14:29:37.529Z,93885.59
2023-03-31T14:32:16.982Z,93879.50
2023-03-31T14:34:55.474Z,93866.53
2023-03-31T14:37:25.362Z,93853.34
2023-03-31T14:39:56.826Z,93871.28
2023-03-31T14:42:28.864Z,93870.06
2023-03-31T14:44:58.130Z,93863.00
2023-03-31T14:47:29.394Z,93840.50
2023-03-31T14:50:02.784Z,93847.41
2023-03-31T14:52:33.600Z,93858.56
2023-03-31T14:55:03.046Z,93844.00
2023-03-31T14:57:34.390Z,93855.16
2023-03-31T15:00:07.710Z,93848.19
2023-03-31T15:02:38.540Z,93823.84
2023-03-31T15:05:09.971Z,93835.31
2023-03-31T15:07:38.665Z,93841.94
2023-03-31T15:10:09.606Z,93837.19
2023-03-31T15:12:38.490Z,93851.13
2023-03-31T15:15:08.453Z,93847.13
2023-03-31T15:17:41.382Z,93831.97
2023-03-31T15:20:31.782Z,93845.13
2023-03-31T15:23:05.274Z,93845.84
2023-03-31T15:25:40.406Z,93832.47
2023-03-31T15:28:12.763Z,93815.88
2023-03-31T15:30:40.931Z,93837.94
2023-03-31T15:33:19.109Z,93820.06
2023-03-31T15:35:47.873Z,93836.06
2023-03-31T15:38:18.766Z,93831.25
2023-03-31T15:40:53.936Z,93837.28
2023-03-31T15:43:30.119Z,93835.91
2023-03-31T15:45:59.316Z,93840.81
2023-03-31T15:48:33.712Z,93819.97
2023-03-31T15:51:03.786Z,93838.00
2023-03-31T15:53:37.049Z,93835.09
2023-03-31T15:56:07.769Z,93825.81
2023-03-31T15:58:56.038Z,93840.13
2023-03-31T16:01:29.434Z,93829.00
2023-03-31T16:03:58.235Z,93838.25
2023-03-31T16:06:35.996Z,93831.03
2023-03-31T16:09:09.627Z,93825.50
2023-03-31T16:11:42.583Z,93826.47
2023-03-31T16:14:17.794Z,93820.91
2023-03-31T16:16:51.958Z,93806.00
2023-03-31T16:19:23.987Z,93825.38
2023-03-31T16:21:55.453Z,93801.75
2023-03-31T16:24:31.939Z,93818.84
2023-03-31T16:27:06.262Z,93803.09
2023-03-31T16:29:35.935Z,93820.47
2023-03-31T16:32:12.619Z,93807.78
2023-03-31T16:34:54.730Z,93818.66
2023-03-31T16:37:23.193Z,93827.44
2023-03-31T16:39:51.858Z,93836.63
2023-03-31T16:42:21.980Z,93834.56
2023-03-31T16:45:09.490Z,93833.47
2023-03-31T16:47:38.694Z,93805.28
2023-03-31T16:50:08.512Z,93799.34
2023-03-31T16:52:37.209Z,93788.25
2023-03-31T16:55:06.542Z,93823.31
2023-03-31T16:57:36.902Z,93799.31
2023-03-31T17:00:05.686Z,93802.88
2023-03-31T17:02:34.843Z,93799.59
2023-03-31T17:05:12.782Z,93807.88
2023-03-31T17:07:41.359Z,93807.88
2023-03-31T17:10:10.675Z,93767.72
2023-03-31T17:12:40.720Z,93788.81
2023-03-31T17:15:10.265Z,93825.63
2023-03-31T17:17:38.409Z,93830.09
2023-03-31T17:20:08.147Z,93825.66
2023-03-31T17:22:36.673Z,93834.75
2023-03-31T17:25:05.899Z,93824.06
2023-03-31T17:27:33.923Z,93795.13
2023-03-31T17:32:33.269Z,93788.84
2023-03-31T17:35:02.331Z,93770.50
2023-03-31T17:37:30.466Z,93820.06
2023-03-31T17:39:58.369Z,93793.50
2023-03-31T17:42:26.766Z,93813.38
2023-03-31T17:44:54.706Z,93815.78
2023-03-31T17:47:24.236Z,93812.81
2023-03-31T17:49:52.229Z,93811.72
2023-03-31T17:52:20.236Z,93815.56
2023-03-31T17:54:50.322Z,93822.19
2023-03-31T17:57:18.921Z,93812.81
2023-03-31T17:59:49.534Z,93810.34
2023-03-31T18:02:17.597Z,93796.25
2023-03-31T18:04:47.140Z,93801.88
2023-03-31T18:07:15.263Z,93801.88
2023-03-31T18:09:44.042Z,93801.03
2023-03-31T18:12:12.061Z,93818.09
2023-03-31T18:14:40.480Z,93808.72
2023-03-31T18:17:11.897Z,93790.63
2023-03-31T18:19:39.829Z,93788.59
2023-03-31T18:22:09.543Z,93809.19
2023-03-31T18:24:38.497Z,93807.06
2023-03-31T18:27:06.978Z,93805.00
2023-03-31T18:29:34.902Z,93808.38
2023-03-31T18:32:02.918Z,93815.75
2023-03-31T18:34:31.214Z,93786.81
2023-03-31T18:36:59.425Z,93811.78
2023-03-31T18:39:29.328Z,93796.09
2023-03-31T18:41:58.457Z,93813.56
2023-03-31T18:44:31.578Z,93795.38
2023-03-31T18:47:00.114Z,93790.84
2023-03-31T18:49:28.281Z,93777.41
2023-03-31T18:51:56.503Z,93800.38
2023-03-31T18:54:24.503Z,93792.75
2023-03-31T18:56:53.798Z,93807.78
2023-03-31T18:59:22.177Z,93794.00
2023-03-31T19:01:50.178Z,93799.06
2023-03-31T19:04:18.138Z,93797.84
2023-03-31T19:06:46.373Z,93800.25
2023-03-31T19:09:14.384Z,93801.13
2023-03-31T19:11:42.702Z,93801.53
2023-03-31T19:14:12.456Z,93804.22
2023-03-31T19:16:42.535Z,93787.94
2023-03-31T19:19:10.883Z,93806.47
2023-03-31T19:21:39.259Z,93798.91
2023-03-31T19:24:07.647Z,93803.69
2023-03-31T19:26:36.190Z,93795.25
2023-03-31T19:29:06.011Z,93774.09
2023-03-31T19:31:38.532Z,93798.63
2023-03-31T19:34:07.962Z,93767.81
2023-03-31T19:36:36.309Z,93787.47
2023-03-31T19:39:06.609Z,93771.94
2023-03-31T19:41:35.001Z,93778.94
2023-03-31T19:44:02.992Z,93792.38
2023-03-31T19:46:31.204Z,93783.59
2023-03-31T19:49:00.800Z,93756.00
2023-03-31T19:51:29.032Z,93792.03
2023-03-31T19:53:57.544Z,93770.66
2023-03-31T19:56:27.121Z,93796.56
2023-03-31T19:58:55.162Z,93803.22
2023-03-31T20:01:25.991Z,93794.56
2023-03-31T20:03:56.006Z,93783.84
2023-03-31T20:06:27.281Z,93792.63
2023-03-31T20:08:56.674Z,93791.66
2023-03-31T20:11:26.128Z,93794.31
2023-03-31T20:13:55.154Z,93783.75
2023-03-31T20:16:25.649Z,93801.63
2023-03-31T20:18:55.117Z,93798.84
2023-03-31T20:21:25.961Z,93787.22
2023-03-31T20:23:53.972Z,93788.44
2023-03-31T20:26:25.047Z,93798.41
2023-03-31T20:28:55.032Z,93776.00
2023-03-31T20:31:24.787Z,93789.25
2023-03-31T20:33:53.815Z,93793.84
2023-03-31T20:36:23.803Z,93792.81
2023-03-31T20:38:54.878Z,93774.47
2023-03-31T20:41:26.533Z,93791.50
2023-03-31T20:43:55.170Z,93782.53
2023-03-31T20:46:24.052Z,93773.78
2023-03-31T20:48:54.988Z,93795.81
2023-03-31T20:51:25.244Z,93793.00
2023-03-31T20:53:56.642Z,93788.97
2023-03-31T20:56:26.650Z,93798.56
2023-03-31T20:58:55.159Z,93792.16
2023-03-31T21:01:23.686Z,93793.16
2023-03-31T21:03:52.317Z,93784.53
2023-03-31T21:06:20.679Z,93761.53
2023-03-31T21:08:53.378Z,93780.94
2023-03-31T21:11:24.190Z,93774.56
2023-03-31T21:13:53.367Z,93751.72
2023-03-31T21:16:22.100Z,93754.53
2023-03-31T21:18:51.514Z,93774.38
2023-03-31T21:21:20.694Z,93770.53
2023-03-31T21:23:49.692Z,93775.78
2023-03-31T21:26:18.304Z,93734.09
2023-03-31T21:28:48.230Z,93776.53
2023-03-31T21:31:20.001Z,93753.94
2023-03-31T21:33:48.517Z,93758.31
2023-03-31T21:36:18.872Z,93779.56
2023-03-31T21:38:47.037Z,93771.16
2023-03-31T21:41:17.117Z,93771.94
2023-03-31T21:43:46.064Z,93738.91
2023-03-31T21:46:17.633Z,93752.91
2023-03-31T21:48:46.078Z,93730.28
2023-03-31T21:51:13.984Z,93755.50
2023-03-31T21:53:42.078Z,93762.09
2023-03-31T21:56:10.016Z,93759.50
2023-03-31T21:58:37.936Z,93766.13
2023-03-31T22:01:06.448Z,93762.72
2023-03-31T22:03:36.708Z,93756.88
2023-03-31T22:06:07.275Z,93738.06
2023-03-31T22:08:36.573Z,93748.50
2023-03-31T22:11:05.987Z,93753.31
2023-03-31T22:13:33.994Z,93749.47
2023-03-31T22:16:02.260Z,93737.28
2023-03-31T22:18:30.656Z,93722.09
2023-03-31T22:21:01.024Z,93745.72
2023-03-31T22:23:29.063Z,93733.09
2023-03-31T22:25:56.993Z,93741.88
2023-03-31T22:28:25.027Z,93743.91
2023-03-31T22:30:53.045Z,93740.09
2023-03-31T22:33:20.963Z,93752.50
2023-03-31T22:35:50.527Z,93723.06
2023-03-31T22:38:19.892Z,93747.91
2023-03-31T22:40:47.721Z,93746.50
2023-03-31T22:43:15.682Z,93742.09
2023-03-31T22:45:43.673Z,93742.88
2023-03-31T22:48:25.519Z,93740.06
2023-03-31T22:51:00.675Z,93709.66
2023-03-31T22:53:29.976Z,93728.88
2023-03-31T22:55:57.847Z,93737.69
2023-03-31T22:58:25.950Z,93735.66
2023-03-31T23:00:57.987Z,93719.63
2023-03-31T23:03:26.414Z,93736.88
2023-03-31T23:05:54.503Z,93730.47
2023-03-31T23:08:22.407Z,93730.47
2023-03-31T23:11:00.141Z,93705.81
2023-03-31T23:13:29.386Z,93717.66
2023-03-31T23:15:57.445Z,93710.44
2023-03-31T23:18:25.722Z,93714.22
2023-03-31T23:20:53.651Z,93727.81
2023-03-31T23:23:21.555Z,93709.94
2023-03-31T23:25:49.430Z,93693.78
2023-03-31T23:28:18.741Z,93694.16
2023-03-31T23:30:56.559Z,93684.34
2023-03-31T23:33:24.902Z,93702.56
2023-03-31T23:35:53.634Z,93697.19
2023-03-31T23:38:21.709Z,93713.44
2023-03-31T23:40:49.658Z,93704.41
2023-03-31T23:43:18.954Z,93694.59
2023-03-31T23:45:46.912Z,93691.22
2023-03-31T23:48:14.812Z,93673.78
2023-03-31T23:50:42.772Z,93673.78
2023-03-31T23:53:10.797Z,93682.00
2023-03-31T23:55:39.144Z,93640.19
2023-03-31T23:58:07.796Z,93671.19
